Terminal Aerodrome Forecast
Issued by NWS Sioux Falls, SD

Home | Current Version | Previous Version | Text Only | Print | Product List | Glossary On
Versions: 1 2 3 4 5 6 7 8 9 10 11 12 13 14 15 16 17 18 19 20 21 22 23 24 25 26 27 28 29 30 31
000
FTUS43 KFSD 010534
TAFSUX
TAF
KSUX 010534Z 0106/0206 03016G22KT 1SM -SN BR SCT008 OVC015
      TEMPO 0106/0109 3/4SM -SN
     FM010900 36020G30KT 1SM -SN SCT008 OVC015
      TEMPO 0109/0112 3/4SM -SN
     FM011500 35022G32KT 2SM -SN SCT008 OVC015
     FM012200 35020G30KT 5SM -SN BKN025
     FM020000 34014KT P6SM SCT025 BKN050
     FM020300 33007KT P6SM SKC=

USA.gov is the U.S. government's official web portal to all federal, state and local government web resources and services.